Time;durP1;ratioP1;P1;durP2;ratioP2;P2;SDS_P1;SDS_P2;PMS_P1;PMS_P2;Temp;Humidity;BMP_temperature;BMP_pressure;BME280_temperature;BME280_humidity;BME280_pressure;Samples;Min_cycle;Max_cycle;Signal;HPM_P1;HPM_P2
2021/01/08 03:51:55;;;;;;;10.27;8.07;;;22.80;99.90;;;;;;5110595;27;20976;-58
2021/01/08 03:54:23;;;;;;;12.40;7.07;;;22.70;99.90;;;;;;5110737;28;20442;-59
2021/01/08 03:56:50;;;;;;;6.80;6.25;;;22.70;99.90;;;;;;5110719;28;20028;-59
2021/01/08 03:59:17;;;;;;;11.57;7.03;;;22.60;99.90;;;;;;5110731;28;20151;-59
2021/01/08 04:01:44;;;;;;;7.43;6.70;;;22.50;99.90;;;;;;5110568;28;20190;-58
2021/01/08 04:04:12;;;;;;;9.93;6.13;;;22.60;99.90;;;;;;5110542;28;20051;-59
2021/01/08 04:06:39;;;;;;;8.95;7.90;;;22.50;99.90;;;;;;5110695;28;20521;-59
2021/01/08 04:09:06;;;;;;;8.70;6.45;;;22.50;99.90;;;;;;5110488;28;20095;-58
2021/01/08 04:11:34;;;;;;;8.73;7.13;;;22.60;99.90;;;;;;5110581;28;20048;-59
2021/01/08 04:14:01;;;;;;;8.90;8.20;;;22.60;99.90;;;;;;5110667;28;20065;-59
2021/01/08 04:16:41;;;;;;;7.22;6.53;;;22.60;99.90;;;;;;5110423;28;20434;-59
2021/01/08 04:19:09;;;;;;;7.13;5.78;;;22.70;99.90;;;;;;5110399;28;20483;-59
2021/01/08 04:21:37;;;;;;;9.18;6.97;;;22.70;99.90;;;;;;5110409;28;20027;-59
2021/01/08 04:24:05;;;;;;;10.23;7.38;;;22.60;99.90;;;;;;5110132;28;20023;-57
2021/01/08 04:26:33;;;;;;;10.57;7.93;;;22.60;99.90;;;;;;5110065;28;20035;-61
2021/01/08 04:29:00;;;;;;;5.97;5.35;;;22.70;99.90;;;;;;5109956;28;20040;-58
2021/01/08 04:31:27;;;;;;;6.55;5.93;;;22.80;99.90;;;;;;5109998;28;20016;-58
2021/01/08 04:33:55;;;;;;;8.73;7.20;;;22.90;99.90;;;;;;5125925;28;20031;-58
2021/01/08 04:36:22;;;;;;;6.82;6.15;;;23.00;99.90;;;;;;5110190;28;20487;-58
2021/01/08 04:38:50;;;;;;;8.15;5.97;;;23.10;99.90;;;;;;5110050;28;20020;-58
2021/01/08 04:41:17;;;;;;;8.65;6.30;;;23.10;99.90;;;;;;5110311;28;20024;-57
2021/01/08 04:43:45;;;;;;;7.40;6.10;;;23.30;99.90;;;;;;5110106;28;20059;-58
2021/01/08 04:46:12;;;;;;;6.45;5.80;;;23.30;99.90;;;;;;5109885;28;20019;-57
2021/01/08 04:48:41;;;;;;;8.07;7.35;;;23.20;99.90;;;;;;5109975;28;20024;-56
2021/01/08 04:51:12;;;;;;;7.40;6.68;;;23.20;99.90;;;;;;5109615;28;20036;-59
2021/01/08 04:53:39;;;;;;;6.47;5.88;;;23.30;99.90;;;;;;5108566;28;20097;-63
2021/01/08 04:56:14;;;;;;;6.80;6.03;;;23.40;99.90;;;;;;5109675;28;20031;-59
2021/01/08 04:58:43;;;;;;;6.63;6.03;;;23.50;99.90;;;;;;5109664;28;20402;-59
2021/01/08 05:01:11;;;;;;;8.57;6.80;;;23.80;99.90;;;;;;5106299;28;20023;-60
2021/01/08 05:03:38;;;;;;;5.95;5.45;;;24.00;99.90;;;;;;5096137;28;20078;-60
2021/01/08 05:06:06;;;;;;;7.70;6.88;;;24.20;99.90;;;;;;5096180;28;20028;-61
2021/01/08 05:08:33;;;;;;;8.70;7.80;;;24.00;99.90;;;;;;5096040;28;20016;-61
2021/01/08 05:11:30;;;;;;;5.85;5.35;;;24.00;99.90;;;;;;5095902;28;20357;-68
2021/01/08 05:14:01;;;;;;;10.88;7.30;;;24.00;99.90;;;;;;5096051;28;20052;-68
2021/01/08 05:16:31;;;;;;;7.22;6.57;;;23.80;99.90;;;;;;5095937;28;20024;-68
2021/01/08 05:19:01;;;;;;;6.45;5.85;;;23.50;99.90;;;;;;5095940;28;20460;-67
2021/01/08 05:21:29;;;;;;;8.80;7.15;;;23.70;99.90;;;;;;5095884;28;20472;-68
2021/01/08 05:24:01;;;;;;;9.25;6.80;;;23.80;99.90;;;;;;5095881;28;20028;-68
2021/01/08 05:26:29;;;;;;;8.00;7.28;;;23.70;99.90;;;;;;5096155;28;20024;-66
2021/01/08 05:29:01;;;;;;;7.85;7.05;;;23.60;99.90;;;;;;5095823;28;20020;-66
2021/01/08 05:31:30;;;;;;;7.80;5.63;;;23.70;99.90;;;;;;5095622;28;20127;-67
2021/01/08 05:33:58;;;;;;;8.90;6.93;;;23.80;99.90;;;;;;5095664;28;20051;-63
2021/01/08 05:36:26;;;;;;;9.73;6.68;;;23.60;99.90;;;;;;5095568;28;20495;-65
2021/01/08 05:38:58;;;;;;;6.25;5.70;;;23.50;99.90;;;;;;5095925;28;20028;-65
2021/01/08 05:41:31;;;;;;;6.45;5.85;;;23.30;99.90;;;;;;5095515;28;20028;-65
2021/01/08 05:44:00;;;;;;;6.65;5.85;;;23.30;99.90;;;;;;5095370;28;20036;-65
2021/01/08 05:46:29;;;;;;;8.10;7.40;;;23.40;99.90;;;;;;5095455;28;20096;-64
2021/01/08 05:49:01;;;;;;;7.43;6.70;;;23.40;99.90;;;;;;5095335;28;20024;-65
2021/01/08 05:51:31;;;;;;;7.13;6.53;;;23.70;99.90;;;;;;5095121;28;20049;-65
2021/01/08 05:54:03;;;;;;;7.18;6.47;;;23.80;99.90;;;;;;5095315;28;20012;-69
2021/01/08 05:56:35;;;;;;;6.80;6.25;;;24.00;99.90;;;;;;5095410;28;20376;-68
2021/01/08 05:59:07;;;;;;;7.90;7.10;;;23.80;99.90;;;;;;5095167;28;20020;-67
2021/01/08 06:01:37;;;;;;;6.78;6.03;;;23.60;99.90;;;;;;5095123;28;20031;-66
2021/01/08 06:04:05;;;;;;;5.70;5.20;;;23.40;99.90;;;;;;5095122;28;20059;-60
2021/01/08 06:06:43;;;;;;;6.60;6.10;;;23.30;99.90;;;;;;5095028;28;20028;-59
2021/01/08 06:09:15;;;;;;;6.85;6.15;;;23.20;99.90;;;;;;5095038;28;20047;-61
2021/01/08 06:11:45;;;;;;;8.10;7.30;;;23.20;99.90;;;;;;5094921;28;20466;-60
2021/01/08 06:14:17;;;;;;;8.20;7.40;;;23.10;99.90;;;;;;5093822;28;20016;-60
2021/01/08 06:16:47;;;;;;;8.05;7.40;;;23.20;99.90;;;;;;5094848;28;20077;-60
2021/01/08 06:19:16;;;;;;;8.23;7.47;;;23.30;99.90;;;;;;5095121;28;20425;-61
2021/01/08 06:21:45;;;;;;;8.18;7.30;;;23.20;99.90;;;;;;5094883;28;20430;-61
2021/01/08 06:24:14;;;;;;;10.03;9.03;;;23.00;99.90;;;;;;5094613;28;20035;-60
2021/01/08 06:26:42;;;;;;;6.82;6.15;;;23.00;99.90;;;;;;5094715;28;20020;-59
2021/01/08 06:29:18;;;;;;;9.55;6.93;;;23.00;99.90;;;;;;5094545;28;20107;-60
2021/01/08 06:31:48;;;;;;;9.00;8.10;;;22.90;99.90;;;;;;5094591;28;20028;-59
2021/01/08 06:34:26;;;;;;;7.63;7.00;;;22.80;99.90;;;;;;5094862;28;20034;-59
2021/01/08 06:37:07;;;;;;;9.85;6.25;;;22.70;99.90;;;;;;5094598;28;20375;-60
2021/01/08 06:39:36;;;;;;;7.00;5.72;;;22.70;99.90;;;;;;5094176;28;20052;-59
2021/01/08 06:42:04;;;;;;;8.40;7.15;;;22.80;99.90;;;;;;5092813;28;20016;-59
2021/01/08 06:44:31;;;;;;;9.57;6.35;;;22.70;99.90;;;;;;5094464;28;20032;-59
2021/01/08 06:47:01;;;;;;;7.53;6.47;;;22.60;99.90;;;;;;5094189;28;20050;-59
2021/01/08 06:49:31;;;;;;;9.15;5.70;;;22.50;99.90;;;;;;5094074;28;20027;-59
2021/01/08 06:52:03;;;;;;;11.77;7.20;;;22.50;99.90;;;;;;5094026;28;20480;-59
2021/01/08 06:54:31;;;;;;;10.48;8.13;;;22.50;99.90;;;;;;5094101;28;20366;-59
2021/01/08 06:57:01;;;;;;;6.90;6.20;;;22.50;99.90;;;;;;5094042;28;20024;-59
2021/01/08 06:59:34;;;;;;;10.77;7.40;;;22.50;99.90;;;;;;5093962;28;20421;-59
2021/01/08 07:02:22;;;;;;;8.45;7.10;;;22.60;99.90;;;;;;5094092;28;20321;-59
2021/01/08 07:04:49;;;;;;;9.30;7.32;;;22.60;99.90;;;;;;5093827;28;20050;-60
2021/01/08 07:07:26;;;;;;;11.10;7.07;;;22.60;99.90;;;;;;5093730;28;20020;-60
2021/01/08 07:09:57;;;;;;;9.10;6.55;;;22.40;99.90;;;;;;5093714;28;20384;-59
2021/01/08 07:12:26;;;;;;;9.93;6.55;;;22.30;99.90;;;;;;5093791;28;20095;-60
2021/01/08 07:14:54;;;;;;;9.63;6.50;;;22.20;99.90;;;;;;5094265;28;20161;-59
2021/01/08 07:17:32;;;;;;;8.00;6.88;;;22.00;99.90;;;;;;5093966;28;20043;-60
2021/01/08 07:20:05;;;;;;;10.07;6.85;;;21.80;99.90;;;;;;5093864;28;20027;-60
2021/01/08 07:22:34;;;;;;;10.00;7.03;;;21.70;99.90;;;;;;5093864;28;20108;-59
2021/01/08 07:25:05;;;;;;;8.57;7.78;;;21.60;99.90;;;;;;5093538;28;20035;-59
2021/01/08 07:27:34;;;;;;;8.18;7.38;;;21.50;99.90;;;;;;5093571;28;20036;-59
2021/01/08 07:30:08;;;;;;;8.45;7.60;;;21.40;99.90;;;;;;5093375;28;20032;-59
2021/01/08 07:32:49;;;;;;;8.55;7.63;;;21.40;99.90;;;;;;5093464;28;20032;-59
2021/01/08 07:35:24;;;;;;;7.80;6.95;;;21.40;99.90;;;;;;5092348;28;20024;-59
2021/01/08 07:38:06;;;;;;;8.55;7.57;;;21.40;99.90;;;;;;5093440;28;20027;-59
2021/01/08 07:40:35;;;;;;;7.82;7.07;;;21.50;99.90;;;;;;5093379;28;20047;-59
2021/01/08 07:43:08;;;;;;;10.70;7.38;;;21.40;99.90;;;;;;5093564;28;20099;-59
2021/01/08 07:45:57;;;;;;;7.93;7.30;;;21.40;99.90;;;;;;5093770;28;20024;-59
2021/01/08 07:48:35;;;;;;;8.65;7.57;;;21.40;99.90;;;;;;5093431;28;20099;-59
2021/01/08 07:51:13;;;;;;;8.75;7.75;;;21.30;99.90;;;;;;5093311;28;20044;-61
2021/01/08 07:53:43;;;;;;;8.40;7.70;;;21.20;99.90;;;;;;5093221;28;20479;-59
2021/01/08 07:56:11;;;;;;;8.98;8.02;;;21.20;99.90;;;;;;5093627;28;20044;-59
2021/01/08 07:58:39;;;;;;;8.35;7.50;;;21.20;99.90;;;;;;5093561;28;20472;-59
2021/01/08 08:01:12;;;;;;;8.77;6.50;;;21.20;99.90;;;;;;5093402;28;20464;-58
2021/01/08 08:03:40;;;;;;;7.60;6.90;;;21.00;99.90;;;;;;5093943;28;20032;-59
2021/01/08 08:06:08;;;;;;;7.70;7.00;;;21.00;99.90;;;;;;5093360;28;20024;-59
2021/01/08 08:08:43;;;;;;;10.65;7.28;;;21.00;99.90;;;;;;5093443;28;20020;-59
2021/01/08 08:11:22;;;;;;;9.80;7.07;;;21.00;99.90;;;;;;5092129;28;20053;-59
2021/01/08 08:13:50;;;;;;;8.32;7.50;;;20.90;99.90;;;;;;5093288;28;20036;-59
2021/01/08 08:16:17;;;;;;;9.68;8.30;;;20.90;99.90;;;;;;5093385;28;20025;-59
2021/01/08 08:18:53;;;;;;;10.18;7.40;;;20.80;99.90;;;;;;5093617;28;20039;-59
2021/01/08 08:21:21;;;;;;;7.15;6.50;;;20.80;99.90;;;;;;5093828;28;20050;-59
2021/01/08 08:24:02;;;;;;;15.93;8.55;;;20.80;99.90;;;;;;5093247;28;20016;-59
2021/01/08 08:26:31;;;;;;;8.63;7.78;;;20.80;99.90;;;;;;5093193;28;20026;-59
2021/01/08 08:28:58;;;;;;;10.48;8.45;;;20.80;99.90;;;;;;5092100;28;20060;-60
2021/01/08 08:31:29;;;;;;;8.73;7.32;;;20.70;99.90;;;;;;5092985;28;20050;-59
2021/01/08 08:33:56;;;;;;;;;;;20.70;99.90;;;;;;5093581;28;20024;-61
2021/01/08 08:36:25;;;;;;;10.40;7.38;;;20.70;99.90;;;;;;5093608;28;20451;-59
2021/01/08 08:39:10;;;;;;;7.90;7.25;;;20.70;99.90;;;;;;5096711;28;20020;-59
2021/01/08 08:41:46;;;;;;;11.55;8.02;;;20.60;99.90;;;;;;5096922;28;20134;-60
2021/01/08 08:44:18;;;;;;;10.52;7.93;;;20.60;99.90;;;;;;5096794;28;20031;-62
2021/01/08 08:46:56;;;;;;;11.88;7.15;;;20.50;99.90;;;;;;5097202;28;20122;-59
2021/01/08 08:49:36;;;;;;;8.07;7.15;;;20.50;99.90;;;;;;5096496;28;20519;-62
2021/01/08 08:52:05;;;;;;;7.60;6.90;;;20.50;99.90;;;;;;5096734;28;20028;-60
2021/01/08 08:54:39;;;;;;;8.50;7.70;;;20.50;99.90;;;;;;5095371;28;20108;-60
2021/01/08 08:57:06;;;;;;;8.57;6.70;;;20.40;99.90;;;;;;5096754;28;20028;-60
2021/01/08 08:59:42;;;;;;;7.93;7.13;;;20.40;99.90;;;;;;5096498;28;20032;-58
2021/01/08 09:02:29;;;;;;;7.43;6.65;;;20.30;99.90;;;;;;5096454;28;20491;-59
2021/01/08 09:04:58;;;;;;;8.30;7.20;;;20.30;99.90;;;;;;5096335;28;20025;-64
2021/01/08 09:07:44;;;;;;;8.05;7.25;;;20.30;99.90;;;;;;5096518;28;20020;-59
2021/01/08 09:10:19;;;;;;;7.35;6.63;;;20.30;99.90;;;;;;5096003;28;20024;-59
2021/01/08 09:13:32;;;;;;;8.40;7.60;;;20.20;99.90;;;;;;5096186;28;20019;-60
2021/01/08 09:16:18;;;;;;;8.68;6.88;;;20.20;99.90;;;;;;5093683;28;20024;-59
2021/01/08 09:18:53;;;;;;;11.13;7.60;;;20.20;99.90;;;;;;5096084;28;20099;-58
2021/01/08 09:21:31;;;;;;;8.07;7.30;;;20.20;99.90;;;;;;5096344;28;20028;-59
2021/01/08 09:24:03;;;;;;;8.15;6.72;;;20.20;99.90;;;;;;5094918;28;20031;-59
2021/01/08 09:26:32;;;;;;;7.22;6.57;;;20.20;99.90;;;;;;5095889;28;20103;-59
2021/01/08 09:28:59;;;;;;;8.82;8.10;;;20.10;99.90;;;;;;5095804;28;20035;-59
2021/01/08 09:31:43;;;;;;;8.48;7.00;;;20.10;99.90;;;;;;5096168;28;20020;-58
2021/01/08 09:34:12;;;;;;;9.05;6.88;;;20.10;99.90;;;;;;5095733;28;20038;-58
2021/01/08 09:36:41;;;;;;;8.55;6.70;;;20.10;99.90;;;;;;5095708;28;20027;-58
2021/01/08 09:39:10;;;;;;;8.40;7.40;;;20.00;99.90;;;;;;5094387;28;20051;-57
2021/01/08 09:41:40;;;;;;;8.23;6.75;;;20.00;99.90;;;;;;5095671;28;20024;-58
2021/01/08 09:44:10;;;;;;;8.27;6.97;;;20.00;99.90;;;;;;5095557;28;20024;-58
2021/01/08 09:46:57;;;;;;;8.15;7.47;;;20.00;99.90;;;;;;5095812;28;20020;-58
2021/01/08 09:49:40;;;;;;;8.40;7.38;;;20.00;99.90;;;;;;5095279;28;20107;-58
2021/01/08 09:52:09;;;;;;;9.82;7.20;;;20.00;99.90;;;;;;5095697;28;20042;-58
2021/01/08 09:54:47;;;;;;;7.80;7.20;;;20.00;99.90;;;;;;5095105;28;20020;-58
2021/01/08 09:57:35;;;;;;;8.50;7.70;;;20.00;99.90;;;;;;5095235;28;20103;-58
2021/01/08 10:00:09;;;;;;;8.82;7.80;;;20.00;99.90;;;;;;5095748;28;20028;-58
2021/01/08 10:02:41;;;;;;;8.23;7.15;;;20.00;99.90;;;;;;5095070;28;20028;-57
2021/01/08 10:05:15;;;;;;;9.73;8.73;;;20.00;99.90;;;;;;5094953;28;20024;-59
2021/01/08 10:07:45;;;;;;;8.60;7.97;;;19.90;99.90;;;;;;5094947;28;20020;-59
2021/01/08 10:10:17;;;;;;;9.40;8.52;;;19.90;99.90;;;;;;5094643;28;20389;-59
2021/01/08 10:12:49;;;;;;;9.60;8.48;;;19.90;99.90;;;;;;5094917;28;20016;-57
2021/01/08 10:15:33;;;;;;;8.75;7.97;;;19.90;99.90;;;;;;5094891;28;20028;-58
2021/01/08 10:18:08;;;;;;;9.25;8.18;;;19.80;99.90;;;;;;5094780;28;20111;-59
2021/01/08 10:20:43;;;;;;;6.82;6.28;;;19.80;99.90;;;;;;5094807;28;20024;-58
2021/01/08 10:23:12;;;;;;;7.68;6.85;;;19.70;99.90;;;;;;5094791;28;20114;-58
2021/01/08 10:25:40;;;;;;;7.32;6.72;;;19.70;99.90;;;;;;5094912;28;20038;-59
2021/01/08 10:28:14;;;;;;;6.80;6.10;;;19.70;99.90;;;;;;5094595;28;20416;-59
2021/01/08 10:30:43;;;;;;;7.63;6.60;;;19.80;99.90;;;;;;5094484;28;20024;-59
2021/01/08 10:33:11;;;;;;;9.32;6.30;;;19.70;99.90;;;;;;5094490;28;20043;-59
2021/01/08 10:35:44;;;;;;;8.55;7.72;;;19.80;99.90;;;;;;5094598;28;20095;-59
2021/01/08 10:38:11;;;;;;;8.70;6.70;;;19.80;99.90;;;;;;5094574;28;20024;-59
2021/01/08 10:40:39;;;;;;;8.13;7.22;;;19.80;99.90;;;;;;5094302;28;20020;-60
2021/01/08 10:43:06;;;;;;;9.90;6.70;;;19.80;99.90;;;;;;5094508;28;20088;-59
2021/01/08 10:45:33;;;;;;;7.65;6.90;;;19.80;99.90;;;;;;5094298;28;20380;-59
2021/01/08 10:48:01;;;;;;;8.80;7.18;;;19.80;99.90;;;;;;5094265;28;20020;-59
2021/01/08 10:50:28;;;;;;;8.65;8.00;;;19.80;99.90;;;;;;5093844;28;20050;-59
2021/01/08 10:52:55;;;;;;;8.50;7.85;;;19.80;99.90;;;;;;5094074;28;20149;-59
2021/01/08 10:55:23;;;;;;;8.07;7.28;;;19.70;99.90;;;;;;5094051;28;20025;-58
2021/01/08 10:57:50;;;;;;;8.45;7.68;;;19.70;99.90;;;;;;5094016;28;20379;-59
2021/01/08 11:00:19;;;;;;;7.93;7.13;;;19.70;99.90;;;;;;5092171;28;20483;-58
2021/01/08 11:02:46;;;;;;;9.55;8.60;;;19.70;99.90;;;;;;5093810;28;20452;-58
2021/01/08 11:05:14;;;;;;;9.48;7.45;;;19.70;99.90;;;;;;5093684;28;20036;-59
2021/01/08 11:07:41;;;;;;;7.47;6.70;;;19.70;99.90;;;;;;5093892;28;20020;-58
2021/01/08 11:10:10;;;;;;;7.88;6.85;;;19.70;99.90;;;;;;5093670;28;20099;-58
2021/01/08 11:12:37;;;;;;;7.50;6.90;;;19.70;99.90;;;;;;5094191;28;20055;-59
2021/01/08 11:15:06;;;;;;;10.40;7.20;;;19.80;99.90;;;;;;5093687;28;20028;-59
2021/01/08 11:17:34;;;;;;;8.45;7.65;;;19.80;99.90;;;;;;5093642;28;20024;-59
2021/01/08 11:20:01;;;;;;;8.88;7.97;;;19.80;99.90;;;;;;5093589;28;20043;-58
2021/01/08 11:22:29;;;;;;;7.50;6.90;;;19.80;99.90;;;;;;5093539;28;20490;-56
2021/01/08 11:24:56;;;;;;;10.45;8.15;;;19.90;99.90;;;;;;5093524;28;20055;-57
2021/01/08 11:27:24;;;;;;;8.05;7.30;;;19.80;99.90;;;;;;5093482;28;20035;-58
2021/01/08 11:29:51;;;;;;;9.50;8.07;;;19.80;99.90;;;;;;5093427;28;20497;-59
2021/01/08 11:32:18;;;;;;;12.43;7.30;;;19.80;99.90;;;;;;5093633;28;20375;-58
2021/01/08 11:34:46;;;;;;;8.35;7.57;;;19.80;99.90;;;;;;5092257;28;20027;-58
2021/01/08 11:37:13;;;;;;;10.35;7.70;;;19.80;99.90;;;;;;5093459;28;20375;-58
2021/01/08 11:39:41;;;;;;;8.10;7.50;;;19.80;99.90;;;;;;5093369;28;20031;-58
2021/01/08 11:42:08;;;;;;;9.38;8.23;;;19.70;99.90;;;;;;5093357;28;20047;-58
2021/01/08 11:44:36;;;;;;;7.70;6.95;;;19.70;99.90;;;;;;5093359;28;20020;-58
2021/01/08 11:47:03;;;;;;;8.70;7.90;;;19.70;99.90;;;;;;5093291;28;20081;-58
2021/01/08 11:49:31;;;;;;;10.82;8.30;;;19.60;99.90;;;;;;5091746;28;20116;-58
2021/01/08 11:51:58;;;;;;;8.85;7.93;;;19.60;99.90;;;;;;5093351;28;20028;-58
2021/01/08 11:54:26;;;;;;;8.57;7.95;;;19.50;99.90;;;;;;5093235;28;20026;-59
2021/01/08 11:56:53;;;;;;;9.40;8.40;;;19.40;99.90;;;;;;5093219;28;20027;-60
2021/01/08 11:59:20;;;;;;;8.85;8.07;;;19.40;99.90;;;;;;5093236;28;20023;-58
2021/01/08 12:01:48;;;;;;;7.97;7.20;;;19.30;99.90;;;;;;5093278;28;20062;-57
2021/01/08 12:04:15;;;;;;;8.63;8.07;;;19.30;99.90;;;;;;5092160;28;20043;-58
2021/01/08 12:06:42;;;;;;;8.75;7.85;;;19.30;99.90;;;;;;5093147;28;20024;-57
2021/01/08 12:09:11;;;;;;;8.77;7.95;;;19.20;99.90;;;;;;5093072;28;20028;-57
2021/01/08 12:11:39;;;;;;;9.38;8.52;;;19.20;99.90;;;;;;5094212;28;20414;-58
2021/01/08 12:14:07;;;;;;;8.25;7.50;;;19.10;99.90;;;;;;5097152;28;20052;-58
2021/01/08 12:16:34;;;;;;;8.75;7.97;;;19.10;99.90;;;;;;5097123;28;20031;-57
2021/01/08 12:19:03;;;;;;;8.07;7.47;;;19.00;99.90;;;;;;5097162;28;20020;-60
2021/01/08 12:21:30;;;;;;;9.15;8.35;;;18.90;99.90;;;;;;5097086;28;20440;-57
2021/01/08 12:23:58;;;;;;;7.60;6.90;;;18.90;99.90;;;;;;5097020;28;20062;-57
2021/01/08 12:26:25;;;;;;;8.50;7.70;;;18.80;99.90;;;;;;5097011;28;20023;-58
2021/01/08 12:28:53;;;;;;;9.20;8.27;;;18.80;99.90;;;;;;5096985;28;20020;-60
2021/01/08 12:31:24;;;;;;;8.52;7.70;;;18.80;99.90;;;;;;5096712;28;20379;-59
2021/01/08 12:33:53;;;;;;;8.43;7.85;;;18.80;99.90;;;;;;5096802;28;20468;-59
2021/01/08 12:36:21;;;;;;;7.65;6.97;;;18.70;99.90;;;;;;5096735;28;20034;-59
2021/01/08 12:38:48;;;;;;;9.18;8.20;;;18.70;99.90;;;;;;5096951;28;20020;-59
2021/01/08 12:41:17;;;;;;;8.13;7.53;;;18.60;99.90;;;;;;5096701;28;20028;-59
2021/01/08 12:43:45;;;;;;;10.18;9.02;;;18.60;99.90;;;;;;5096583;28;20107;-58
2021/01/08 12:46:13;;;;;;;10.30;9.40;;;18.50;99.90;;;;;;5096548;28;20518;-59
2021/01/08 12:48:41;;;;;;;8.73;8.02;;;18.50;99.90;;;;;;5096589;28;20020;-59
2021/01/08 12:51:10;;;;;;;9.50;8.65;;;18.50;99.90;;;;;;5096289;28;20071;-59
2021/01/08 12:53:37;;;;;;;10.93;8.70;;;18.40;99.90;;;;;;5096558;28;20091;-59
2021/01/08 12:56:05;;;;;;;9.45;8.63;;;18.50;99.90;;;;;;5096433;28;20494;-58
2021/01/08 12:58:32;;;;;;;8.48;7.75;;;18.40;99.90;;;;;;5096647;28;20020;-58
2021/01/08 13:01:00;;;;;;;8.90;8.27;;;18.40;99.90;;;;;;5096288;28;20030;-59
2021/01/08 13:03:27;;;;;;;8.90;8.20;;;18.40;99.90;;;;;;5096402;28;20035;-58
2021/01/08 13:05:55;;;;;;;8.57;7.85;;;18.40;99.90;;;;;;5096278;28;20032;-58
2021/01/08 13:08:22;;;;;;;8.57;8.07;;;18.40;99.90;;;;;;5094983;28;20031;-59
2021/01/08 13:10:49;;;;;;;7.20;6.57;;;18.30;99.90;;;;;;5096161;28;20044;-61
2021/01/08 13:13:17;;;;;;;9.85;9.15;;;18.40;99.90;;;;;;5096261;28;20048;-59
2021/01/08 13:15:46;;;;;;;9.77;8.95;;;18.40;99.90;;;;;;5096196;28;20016;-58
2021/01/08 13:18:14;;;;;;;11.80;9.90;;;18.30;99.90;;;;;;5096140;28;20024;-58
2021/01/08 13:20:41;;;;;;;9.05;8.45;;;18.40;99.90;;;;;;5096182;28;20047;-58
2021/01/08 13:23:09;;;;;;;7.70;7.10;;;18.40;99.90;;;;;;5095471;28;20158;-58
2021/01/08 13:25:38;;;;;;;10.00;8.98;;;18.40;99.90;;;;;;5095908;28;20035;-58
2021/01/08 13:28:06;;;;;;;9.07;8.55;;;18.40;99.90;;;;;;5096166;28;20093;-58
2021/01/08 13:30:33;;;;;;;9.73;9.00;;;18.40;99.90;;;;;;5095730;28;20365;-58
2021/01/08 13:33:01;;;;;;;7.95;7.20;;;18.40;99.90;;;;;;5096067;28;20533;-58
2021/01/08 13:35:29;;;;;;;9.70;8.88;;;18.50;99.90;;;;;;5095716;28;20023;-59
2021/01/08 13:38:19;;;;;;;10.20;9.35;;;18.50;99.90;;;;;;5095680;28;20016;-58
2021/01/08 13:40:48;;;;;;;10.60;9.48;;;18.60;99.90;;;;;;5095460;28;20032;-58
2021/01/08 13:43:15;;;;;;;9.38;8.73;;;18.70;99.90;;;;;;5095495;28;20036;-58
2021/01/08 13:45:42;;;;;;;8.60;7.80;;;18.70;99.90;;;;;;5095408;28;20030;-58
2021/01/08 13:48:10;;;;;;;9.25;8.50;;;18.80;99.90;;;;;;5095379;28;20035;-58
2021/01/08 13:50:37;;;;;;;9.40;7.93;;;18.90;99.90;;;;;;5095050;28;20036;-58
2021/01/08 13:53:05;;;;;;;8.82;8.00;;;18.90;99.90;;;;;;5095337;28;20024;-59
2021/01/08 13:55:32;;;;;;;8.45;7.10;;;19.00;99.90;;;;;;5095338;28;20024;-58
2021/01/08 13:57:59;;;;;;;7.75;7.22;;;19.00;99.90;;;;;;5095198;28;20073;-58
2021/01/08 14:00:27;;;;;;;7.80;7.20;;;19.00;99.90;;;;;;5095194;28;20043;-58
2021/01/08 14:02:54;;;;;;;8.10;7.53;;;19.10;99.90;;;;;;5095204;28;20028;-58
2021/01/08 14:05:21;;;;;;;9.98;9.07;;;19.10;99.90;;;;;;5095080;28;20048;-59
2021/01/08 14:07:49;;;;;;;8.57;7.80;;;19.10;99.90;;;;;;5095048;28;20026;-60
2021/01/08 14:10:16;;;;;;;8.98;8.20;;;19.10;99.90;;;;;;5094891;28;20028;-58
2021/01/08 14:12:43;;;;;;;8.98;8.13;;;19.10;99.90;;;;;;5094991;28;20023;-57
2021/01/08 14:15:11;;;;;;;9.88;8.80;;;19.10;99.90;;;;;;5094912;28;20073;-59
2021/01/08 14:17:40;;;;;;;9.90;9.20;;;19.00;99.90;;;;;;5094858;28;20547;-57
2021/01/08 14:20:08;;;;;;;8.63;7.72;;;19.00;99.90;;;;;;5094888;28;20460;-58
2021/01/08 14:22:35;;;;;;;10.45;9.55;;;19.00;99.90;;;;;;5094719;28;20031;-58
2021/01/08 14:25:06;;;;;;;8.40;7.80;;;19.00;99.90;;;;;;5094673;28;20402;-57
2021/01/08 14:27:33;;;;;;;;;;;19.00;99.90;;;;;;5095088;28;20028;-59
2021/01/08 14:30:00;;;;;;;8.93;7.88;;;19.00;99.90;;;;;;5094535;28;19908;-59
2021/01/08 14:32:28;;;;;;;12.27;9.50;;;19.00;99.90;;;;;;5094484;28;20024;-58
2021/01/08 14:34:55;;;;;;;9.55;8.88;;;19.00;99.90;;;;;;5093593;28;20035;-58
2021/01/08 14:37:23;;;;;;;8.48;7.93;;;19.10;99.90;;;;;;5094336;28;20495;-57
2021/01/08 14:39:50;;;;;;;9.50;8.70;;;19.10;99.90;;;;;;5094326;28;20114;-58
2021/01/08 14:42:17;;;;;;;9.23;8.32;;;19.00;99.90;;;;;;5094385;28;20027;-58
2021/01/08 14:44:45;;;;;;;8.90;8.30;;;19.00;99.90;;;;;;5094339;28;20035;-58
2021/01/08 14:47:12;;;;;;;9.70;8.90;;;19.00;99.90;;;;;;5094230;28;20024;-57
2021/01/08 14:49:39;;;;;;;9.18;8.45;;;19.00;99.90;;;;;;5094080;28;20020;-58
2021/01/08 14:52:07;;;;;;;8.35;7.75;;;18.90;99.90;;;;;;5094219;28;20133;-58
2021/01/08 14:54:34;;;;;;;9.20;8.30;;;18.90;99.90;;;;;;5094113;28;20016;-59
2021/01/08 14:57:01;;;;;;;9.23;8.27;;;18.90;99.90;;;;;;5093987;28;20032;-59
2021/01/08 14:59:28;;;;;;;8.98;8.27;;;18.80;99.90;;;;;;5094048;28;20035;-59
2021/01/08 15:02:00;;;;;;;9.20;8.40;;;18.70;99.90;;;;;;5094401;28;20099;-58
2021/01/08 15:04:27;;;;;;;10.00;8.93;;;18.60;99.90;;;;;;5094534;28;20039;-57
2021/01/08 15:06:55;;;;;;;9.43;8.60;;;18.60;99.90;;;;;;5093952;28;20028;-58
2021/01/08 15:09:22;;;;;;;9.93;8.80;;;18.50;99.90;;;;;;5093894;28;20016;-58
2021/01/08 15:11:49;;;;;;;9.10;8.43;;;18.50;99.90;;;;;;5093875;28;20028;-58
2021/01/08 15:14:17;;;;;;;8.80;8.02;;;18.40;99.90;;;;;;5093856;28;20577;-58
2021/01/08 15:16:44;;;;;;;9.00;8.40;;;18.40;99.90;;;;;;5093783;28;20020;-58
2021/01/08 15:19:11;;;;;;;8.75;7.95;;;18.30;99.90;;;;;;5093764;28;20047;-58
2021/01/08 15:21:42;;;;;;;8.43;7.60;;;18.20;99.90;;;;;;5093718;28;20027;-58
2021/01/08 15:24:09;;;;;;;;;;;18.20;99.90;;;;;;5094083;28;20479;-58
2021/01/08 15:26:36;;;;;;;9.65;8.35;;;18.20;99.90;;;;;;5093687;28;20248;-58
2021/01/08 15:29:04;;;;;;;8.80;8.00;;;18.10;99.90;;;;;;5093489;28;20153;-58
2021/01/08 15:31:31;;;;;;;9.48;8.50;;;18.10;99.90;;;;;;5093210;28;20097;-58
2021/01/08 15:33:58;;;;;;;10.60;8.85;;;18.00;99.90;;;;;;5093568;28;20494;-58
2021/01/08 15:36:26;;;;;;;10.05;9.05;;;18.00;99.90;;;;;;5093549;28;20035;-58
2021/01/08 15:38:53;;;;;;;9.32;8.57;;;17.90;99.90;;;;;;5093499;28;20012;-58
2021/01/08 15:41:24;;;;;;;9.35;8.60;;;17.90;99.90;;;;;;5093491;28;20099;-58
2021/01/08 15:43:52;;;;;;;9.63;8.70;;;17.80;99.90;;;;;;5093565;28;20027;-59
2021/01/08 15:46:20;;;;;;;9.35;8.55;;;17.80;99.90;;;;;;5093119;28;20039;-60
2021/01/08 15:48:48;;;;;;;9.55;8.82;;;17.70;99.90;;;;;;5093301;28;20028;-58
2021/01/08 15:51:15;;;;;;;9.98;9.20;;;17.70;99.90;;;;;;5092995;28;20060;-59
2021/01/08 15:53:42;;;;;;;9.88;9.15;;;17.60;99.90;;;;;;5093288;28;20024;-58
2021/01/08 15:56:10;;;;;;;10.15;9.23;;;17.60;99.90;;;;;;5093265;28;20047;-58
2021/01/08 15:58:37;;;;;;;10.10;9.20;;;17.60;99.90;;;;;;5093361;28;20023;-58
2021/01/08 16:01:04;;;;;;;9.30;8.70;;;17.50;99.90;;;;;;5093198;28;20024;-58
2021/01/08 16:03:32;;;;;;;9.40;8.70;;;17.50;99.90;;;;;;5093205;28;20031;-59
2021/01/08 16:05:59;;;;;;;9.85;9.15;;;17.40;99.90;;;;;;5093077;28;20066;-58
2021/01/08 16:08:26;;;;;;;9.65;9.05;;;17.40;99.90;;;;;;5093176;28;20028;-59
2021/01/08 16:10:54;;;;;;;10.30;9.40;;;17.40;99.90;;;;;;5093268;28;20024;-58
2021/01/08 16:13:21;;;;;;;10.32;9.35;;;17.40;99.90;;;;;;5093074;28;20103;-58
2021/01/08 16:15:50;;;;;;;9.88;9.05;;;17.30;99.90;;;;;;5093067;28;20023;-57
2021/01/08 16:18:18;;;;;;;12.80;9.68;;;17.30;99.90;;;;;;5093096;28;20049;-58
2021/01/08 16:20:45;;;;;;;10.63;9.60;;;17.30;99.90;;;;;;5093214;28;20032;-58
2021/01/08 16:23:13;;;;;;;10.32;9.60;;;17.30;99.90;;;;;;5093015;28;20035;-58
2021/01/08 16:25:40;;;;;;;10.23;9.35;;;17.30;99.90;;;;;;5092941;28;20491;-57
2021/01/08 16:28:08;;;;;;;10.15;9.40;;;17.30;99.90;;;;;;5093144;28;20027;-58
2021/01/08 16:30:35;;;;;;;10.18;9.10;;;17.30;99.90;;;;;;5092813;28;20104;-58
2021/01/08 16:33:04;;;;;;;11.15;10.23;;;17.30;99.90;;;;;;5092904;28;20384;-59
2021/01/08 16:35:32;;;;;;;10.77;9.90;;;17.40;99.90;;;;;;5093060;28;20020;-59
2021/01/08 16:37:59;;;;;;;10.43;9.38;;;17.40;99.90;;;;;;5091446;28;20024;-57
2021/01/08 16:40:27;;;;;;;10.13;9.40;;;17.40;99.90;;;;;;5092836;28;20058;-58
2021/01/08 16:42:54;;;;;;;10.63;9.93;;;17.40;99.90;;;;;;5092798;28;20055;-58
2021/01/08 16:45:24;;;;;;;11.18;10.20;;;17.40;99.90;;;;;;5092769;28;20021;-59
2021/01/08 16:47:54;;;;;;;11.35;10.30;;;17.40;99.90;;;;;;5092710;28;20050;-58
2021/01/08 16:50:21;;;;;;;;;;;17.40;99.90;;;;;;5092881;28;20048;-58